Terminal Aerodrome Forecast
Issued by NWS Memphis, TN

Home | Current Version | Previous Version | Text Only | Print | Product List | Glossary On
Versions: 1 2 3 4 5 6 7 8 9 10 11 12 13 14 15 16 17 18 19 20 21 22 23 24 25
000
FTUS44 KMEG 032048 AAA
TAFMEM
TAF AMD
KMEM 032048Z 0321/0418 19008KT P6SM FEW070 BKN200
     FM040000 18005KT P6SM FEW250
     FM041500 20008KT P6SM FEW250=

USA.gov is the U.S. government's official web portal to all federal, state and local government web resources and services.